Main page
METAR-TAF:

METAR-TAF

Airports :

Khrabrovo Airport

Kaliningrad, Russia

latitude: 54-43-12N, longitude: 020-30E, elevation: 21 m

Current weather observation

The report was made 17 minutes ago, at 20:00 UTC
Wind 6 kt from the West
Temperature 8°C
Humidity 87%
Pressure 1024 hPa
Visibility 10 km or more
Broken clouds at a height of 3000 ft

METAR: UMKK 202000Z 27003MPS 9999 BKN030 08/06 Q1024 R24/29//60 NOSIG RMK QFE767/1023

Time: 22:17 (20:17 UTC)

Forecast

The report was made 3 hours and 17 minutes ago, at 17:00 UTC
Forecast valid from 20 at 18 UTC to 21 at 18 UTC
Wind 6 kt from the West/Southwest with gusts up to 16 kt
Visibility 10 km or more
Broken clouds at a height of 3000 ft
Temporary
from 20 at 18 UTC to 21 at 06 UTC
Wind 2 kt from variable directions
Visibility: 3100 m
Scattered clouds at a height of 1100 ft
mist
Becoming
from 21 at 15 UTC to 21 at 16 UTC
Wind 6 kt from the South

TAF: UMKK 201700Z 2018/2118 25003G08MPS 9999 BKN030 TEMPO 2018/2106 VRB01MPS 3100 BR SCT011 BECMG 2115/2116 19003MPS

Weather observations and forecasts of more than 4000 airports (METAR and TAF reports).

The available stations are represented by yellow and red dots on the map.

Hover mouse over dot to see the name of the station.

Then click to see weather observations and forecasts.

To change the map : click on the green buttons with a black cross to zoom in, on the green button with a dash to zoom out, or on the green arrows for adjacent maps.


METAR-TAF: